sensor_id;sensor_type;location;lat;lon;timestamp;P1;durP1;ratioP1;P2;durP2;ratioP2
4462;SDS011;2244;50.200;8.220;2023-06-22T00:02:22;15.20;;;6.90;;
4462;SDS011;2244;50.200;8.220;2023-06-22T00:04:50;15.47;;;7.57;;
4462;SDS011;2244;50.200;8.220;2023-06-22T00:07:17;14.70;;;7.20;;
4462;SDS011;2244;50.200;8.220;2023-06-22T00:09:44;17.00;;;8.43;;
4462;SDS011;2244;50.200;8.220;2023-06-22T00:12:12;14.60;;;7.43;;
4462;SDS011;2244;50.200;8.220;2023-06-22T00:14:39;20.90;;;8.80;;
4462;SDS011;2244;50.200;8.220;2023-06-22T00:17:07;18.63;;;7.83;;
4462;SDS011;2244;50.200;8.220;2023-06-22T00:19:34;15.13;;;7.90;;
4462;SDS011;2244;50.200;8.220;2023-06-22T00:22:02;21.83;;;7.27;;
4462;SDS011;2244;50.200;8.220;2023-06-22T00:24:30;18.80;;;8.07;;
4462;SDS011;2244;50.200;8.220;2023-06-22T00:26:57;16.40;;;7.87;;
4462;SDS011;2244;50.200;8.220;2023-06-22T00:29:24;17.33;;;8.20;;
4462;SDS011;2244;50.200;8.220;2023-06-22T00:31:52;17.53;;;7.60;;
4462;SDS011;2244;50.200;8.220;2023-06-22T00:34:19;17.63;;;7.33;;
4462;SDS011;2244;50.200;8.220;2023-06-22T00:36:47;18.87;;;8.33;;
4462;SDS011;2244;50.200;8.220;2023-06-22T00:39:14;16.80;;;8.37;;
4462;SDS011;2244;50.200;8.220;2023-06-22T00:41:42;21.20;;;8.60;;
4462;SDS011;2244;50.200;8.220;2023-06-22T00:44:09;18.10;;;8.40;;
4462;SDS011;2244;50.200;8.220;2023-06-22T00:46:37;18.13;;;8.57;;
4462;SDS011;2244;50.200;8.220;2023-06-22T00:49:04;17.27;;;9.17;;
4462;SDS011;2244;50.200;8.220;2023-06-22T00:51:32;20.23;;;9.40;;
4462;SDS011;2244;50.200;8.220;2023-06-22T00:53:59;23.53;;;9.70;;
4462;SDS011;2244;50.200;8.220;2023-06-22T00:56:27;17.40;;;9.33;;
4462;SDS011;2244;50.200;8.220;2023-06-22T00:58:56;16.13;;;9.20;;
4462;SDS011;2244;50.200;8.220;2023-06-22T01:01:25;17.33;;;9.50;;
4462;SDS011;2244;50.200;8.220;2023-06-22T01:03:53;17.87;;;8.60;;
4462;SDS011;2244;50.200;8.220;2023-06-22T01:06:25;18.67;;;9.73;;
4462;SDS011;2244;50.200;8.220;2023-06-22T01:09:05;15.97;;;9.00;;
4462;SDS011;2244;50.200;8.220;2023-06-22T01:11:32;20.13;;;10.03;;
4462;SDS011;2244;50.200;8.220;2023-06-22T01:14:09;20.20;;;9.00;;
4462;SDS011;2244;50.200;8.220;2023-06-22T01:16:37;19.67;;;9.63;;
4462;SDS011;2244;50.200;8.220;2023-06-22T01:19:14;19.37;;;10.33;;
4462;SDS011;2244;50.200;8.220;2023-06-22T01:21:34;19.10;;;9.77;;
4462;SDS011;2244;50.200;8.220;2023-06-22T01:26:43;20.70;;;11.93;;
4462;SDS011;2244;50.200;8.220;2023-06-22T01:29:11;18.83;;;9.60;;
4462;SDS011;2244;50.200;8.220;2023-06-22T01:31:40;16.67;;;9.47;;
4462;SDS011;2244;50.200;8.220;2023-06-22T01:34:09;18.43;;;10.30;;
4462;SDS011;2244;50.200;8.220;2023-06-22T01:36:36;20.07;;;12.23;;
4462;SDS011;2244;50.200;8.220;2023-06-22T01:39:05;22.77;;;11.80;;
4462;SDS011;2244;50.200;8.220;2023-06-22T01:41:34;19.10;;;11.60;;
4462;SDS011;2244;50.200;8.220;2023-06-22T01:44:02;21.87;;;11.13;;
4462;SDS011;2244;50.200;8.220;2023-06-22T01:46:31;22.30;;;13.50;;
4462;SDS011;2244;50.200;8.220;2023-06-22T01:48:58;19.47;;;10.73;;
4462;SDS011;2244;50.200;8.220;2023-06-22T01:51:26;21.93;;;12.60;;
4462;SDS011;2244;50.200;8.220;2023-06-22T01:53:54;22.40;;;11.63;;
4462;SDS011;2244;50.200;8.220;2023-06-22T01:56:21;21.70;;;11.30;;
4462;SDS011;2244;50.200;8.220;2023-06-22T01:58:55;21.87;;;11.77;;
4462;SDS011;2244;50.200;8.220;2023-06-22T02:01:20;24.73;;;13.80;;
4462;SDS011;2244;50.200;8.220;2023-06-22T02:03:50;22.50;;;13.80;;
4462;SDS011;2244;50.200;8.220;2023-06-22T02:06:17;19.97;;;11.23;;
4462;SDS011;2244;50.200;8.220;2023-06-22T02:08:48;20.33;;;10.60;;
4462;SDS011;2244;50.200;8.220;2023-06-22T02:11:17;21.70;;;12.60;;
4462;SDS011;2244;50.200;8.220;2023-06-22T02:13:45;19.70;;;11.50;;
4462;SDS011;2244;50.200;8.220;2023-06-22T02:16:13;22.77;;;12.77;;
4462;SDS011;2244;50.200;8.220;2023-06-22T02:18:46;20.90;;;12.40;;
4462;SDS011;2244;50.200;8.220;2023-06-22T02:21:13;22.17;;;12.47;;
4462;SDS011;2244;50.200;8.220;2023-06-22T02:23:41;19.97;;;11.93;;
4462;SDS011;2244;50.200;8.220;2023-06-22T02:26:08;22.87;;;12.80;;
4462;SDS011;2244;50.200;8.220;2023-06-22T02:28:36;19.00;;;12.60;;
4462;SDS011;2244;50.200;8.220;2023-06-22T02:31:03;18.83;;;11.90;;
4462;SDS011;2244;50.200;8.220;2023-06-22T02:33:31;18.70;;;10.97;;
4462;SDS011;2244;50.200;8.220;2023-06-22T02:35:58;20.13;;;11.53;;
4462;SDS011;2244;50.200;8.220;2023-06-22T02:38:25;21.27;;;13.07;;
4462;SDS011;2244;50.200;8.220;2023-06-22T02:40:53;19.50;;;12.23;;
4462;SDS011;2244;50.200;8.220;2023-06-22T02:43:21;23.13;;;11.30;;
4462;SDS011;2244;50.200;8.220;2023-06-22T02:45:48;18.50;;;10.80;;
4462;SDS011;2244;50.200;8.220;2023-06-22T02:48:16;21.93;;;12.20;;
4462;SDS011;2244;50.200;8.220;2023-06-22T02:50:43;24.50;;;12.20;;
4462;SDS011;2244;50.200;8.220;2023-06-22T02:53:11;21.40;;;12.67;;
4462;SDS011;2244;50.200;8.220;2023-06-22T02:55:38;18.90;;;10.67;;
4462;SDS011;2244;50.200;8.220;2023-06-22T02:58:06;21.27;;;13.13;;
4462;SDS011;2244;50.200;8.220;2023-06-22T03:00:35;21.67;;;13.40;;
4462;SDS011;2244;50.200;8.220;2023-06-22T03:03:02;23.13;;;13.27;;
4462;SDS011;2244;50.200;8.220;2023-06-22T03:05:30;22.97;;;13.77;;
4462;SDS011;2244;50.200;8.220;2023-06-22T03:07:59;19.93;;;12.50;;
4462;SDS011;2244;50.200;8.220;2023-06-22T03:10:26;21.90;;;14.50;;
4462;SDS011;2244;50.200;8.220;2023-06-22T03:12:54;21.30;;;13.30;;
4462;SDS011;2244;50.200;8.220;2023-06-22T03:15:21;21.63;;;14.17;;
4462;SDS011;2244;50.200;8.220;2023-06-22T03:17:49;21.70;;;13.40;;
4462;SDS011;2244;50.200;8.220;2023-06-22T03:20:17;23.03;;;14.57;;
4462;SDS011;2244;50.200;8.220;2023-06-22T03:22:45;20.57;;;12.27;;
4462;SDS011;2244;50.200;8.220;2023-06-22T03:25:13;21.17;;;12.33;;
4462;SDS011;2244;50.200;8.220;2023-06-22T03:27:41;21.53;;;14.93;;
4462;SDS011;2244;50.200;8.220;2023-06-22T03:30:10;24.30;;;16.00;;
4462;SDS011;2244;50.200;8.220;2023-06-22T03:32:38;28.73;;;14.10;;
4462;SDS011;2244;50.200;8.220;2023-06-22T03:35:06;21.00;;;13.27;;
4462;SDS011;2244;50.200;8.220;2023-06-22T03:37:33;22.53;;;14.70;;
4462;SDS011;2244;50.200;8.220;2023-06-22T03:40:01;21.00;;;14.43;;
4462;SDS011;2244;50.200;8.220;2023-06-22T03:42:30;25.00;;;14.63;;
4462;SDS011;2244;50.200;8.220;2023-06-22T03:44:57;20.10;;;13.40;;
4462;SDS011;2244;50.200;8.220;2023-06-22T03:47:25;22.33;;;13.30;;
4462;SDS011;2244;50.200;8.220;2023-06-22T03:49:52;24.13;;;14.97;;
4462;SDS011;2244;50.200;8.220;2023-06-22T03:52:21;25.87;;;14.93;;
4462;SDS011;2244;50.200;8.220;2023-06-22T03:54:49;24.50;;;15.23;;
4462;SDS011;2244;50.200;8.220;2023-06-22T03:57:16;24.20;;;15.23;;
4462;SDS011;2244;50.200;8.220;2023-06-22T03:59:44;22.30;;;13.50;;
4462;SDS011;2244;50.200;8.220;2023-06-22T04:02:11;25.50;;;16.77;;
4462;SDS011;2244;50.200;8.220;2023-06-22T04:04:39;22.40;;;16.00;;
4462;SDS011;2244;50.200;8.220;2023-06-22T04:07:06;25.17;;;17.30;;
4462;SDS011;2244;50.200;8.220;2023-06-22T04:09:35;24.73;;;16.40;;
4462;SDS011;2244;50.200;8.220;2023-06-22T04:12:02;24.53;;;16.10;;
4462;SDS011;2244;50.200;8.220;2023-06-22T04:14:30;23.27;;;16.40;;
4462;SDS011;2244;50.200;8.220;2023-06-22T04:16:57;26.10;;;15.20;;
4462;SDS011;2244;50.200;8.220;2023-06-22T04:19:25;23.67;;;16.67;;
4462;SDS011;2244;50.200;8.220;2023-06-22T04:21:52;24.97;;;16.60;;
4462;SDS011;2244;50.200;8.220;2023-06-22T04:24:20;24.20;;;16.53;;
4462;SDS011;2244;50.200;8.220;2023-06-22T04:26:47;23.17;;;15.93;;
4462;SDS011;2244;50.200;8.220;2023-06-22T04:29:15;30.33;;;17.23;;
4462;SDS011;2244;50.200;8.220;2023-06-22T04:31:42;22.97;;;14.93;;
4462;SDS011;2244;50.200;8.220;2023-06-22T04:34:10;24.80;;;16.57;;
4462;SDS011;2244;50.200;8.220;2023-06-22T04:36:38;26.73;;;16.33;;
4462;SDS011;2244;50.200;8.220;2023-06-22T04:39:12;24.93;;;16.23;;
4462;SDS011;2244;50.200;8.220;2023-06-22T04:41:40;23.10;;;15.70;;
4462;SDS011;2244;50.200;8.220;2023-06-22T04:44:20;29.67;;;17.10;;
4462;SDS011;2244;50.200;8.220;2023-06-22T04:46:52;22.40;;;15.47;;
4462;SDS011;2244;50.200;8.220;2023-06-22T04:49:21;32.40;;;16.53;;
4462;SDS011;2244;50.200;8.220;2023-06-22T04:51:49;25.50;;;16.27;;
4462;SDS011;2244;50.200;8.220;2023-06-22T04:54:18;27.37;;;19.50;;
4462;SDS011;2244;50.200;8.220;2023-06-22T04:56:46;26.90;;;15.30;;
4462;SDS011;2244;50.200;8.220;2023-06-22T04:59:14;22.77;;;14.40;;
4462;SDS011;2244;50.200;8.220;2023-06-22T05:01:43;22.83;;;15.33;;
4462;SDS011;2244;50.200;8.220;2023-06-22T05:04:11;22.57;;;14.27;;
4462;SDS011;2244;50.200;8.220;2023-06-22T05:06:39;24.20;;;13.63;;
4462;SDS011;2244;50.200;8.220;2023-06-22T05:09:07;24.13;;;15.03;;
4462;SDS011;2244;50.200;8.220;2023-06-22T05:11:34;24.20;;;16.13;;
4462;SDS011;2244;50.200;8.220;2023-06-22T05:14:02;22.73;;;14.03;;
4462;SDS011;2244;50.200;8.220;2023-06-22T05:16:29;25.00;;;15.73;;
4462;SDS011;2244;50.200;8.220;2023-06-22T05:18:57;22.63;;;13.93;;
4462;SDS011;2244;50.200;8.220;2023-06-22T05:21:26;25.23;;;14.53;;
4462;SDS011;2244;50.200;8.220;2023-06-22T05:23:53;23.97;;;14.87;;
4462;SDS011;2244;50.200;8.220;2023-06-22T05:26:22;26.57;;;14.90;;
4462;SDS011;2244;50.200;8.220;2023-06-22T05:28:49;21.83;;;14.90;;
4462;SDS011;2244;50.200;8.220;2023-06-22T05:31:17;24.80;;;15.77;;
4462;SDS011;2244;50.200;8.220;2023-06-22T05:33:47;23.73;;;14.70;;
4462;SDS011;2244;50.200;8.220;2023-06-22T05:36:14;26.03;;;14.50;;
4462;SDS011;2244;50.200;8.220;2023-06-22T05:38:42;29.60;;;16.67;;
4462;SDS011;2244;50.200;8.220;2023-06-22T05:41:09;25.63;;;15.00;;
4462;SDS011;2244;50.200;8.220;2023-06-22T05:43:37;24.07;;;16.00;;
4462;SDS011;2244;50.200;8.220;2023-06-22T05:46:04;24.83;;;14.80;;
4462;SDS011;2244;50.200;8.220;2023-06-22T05:48:32;24.90;;;16.03;;
4462;SDS011;2244;50.200;8.220;2023-06-22T05:50:59;23.40;;;15.13;;
4462;SDS011;2244;50.200;8.220;2023-06-22T05:53:26;28.47;;;14.90;;
4462;SDS011;2244;50.200;8.220;2023-06-22T05:55:55;23.73;;;13.20;;
4462;SDS011;2244;50.200;8.220;2023-06-22T05:58:22;22.87;;;12.53;;
4462;SDS011;2244;50.200;8.220;2023-06-22T06:00:50;23.43;;;13.60;;
4462;SDS011;2244;50.200;8.220;2023-06-22T06:03:17;21.53;;;13.40;;
4462;SDS011;2244;50.200;8.220;2023-06-22T06:05:44;21.47;;;12.40;;
4462;SDS011;2244;50.200;8.220;2023-06-22T06:08:12;20.07;;;12.63;;
4462;SDS011;2244;50.200;8.220;2023-06-22T06:10:39;20.07;;;12.00;;
4462;SDS011;2244;50.200;8.220;2023-06-22T06:13:07;20.43;;;11.83;;
4462;SDS011;2244;50.200;8.220;2023-06-22T06:15:34;19.07;;;11.33;;
4462;SDS011;2244;50.200;8.220;2023-06-22T06:18:02;21.83;;;13.00;;
4462;SDS011;2244;50.200;8.220;2023-06-22T06:20:32;21.03;;;13.03;;
4462;SDS011;2244;50.200;8.220;2023-06-22T06:23:00;20.80;;;12.10;;
4462;SDS011;2244;50.200;8.220;2023-06-22T06:25:28;20.10;;;12.17;;
4462;SDS011;2244;50.200;8.220;2023-06-22T06:27:55;19.20;;;12.90;;
4462;SDS011;2244;50.200;8.220;2023-06-22T06:30:23;21.77;;;13.00;;
4462;SDS011;2244;50.200;8.220;2023-06-22T06:32:50;19.17;;;11.43;;
4462;SDS011;2244;50.200;8.220;2023-06-22T06:35:18;18.27;;;11.50;;
4462;SDS011;2244;50.200;8.220;2023-06-22T06:37:47;19.50;;;11.47;;
4462;SDS011;2244;50.200;8.220;2023-06-22T06:40:15;19.40;;;11.00;;
4462;SDS011;2244;50.200;8.220;2023-06-22T06:42:44;21.43;;;12.13;;
4462;SDS011;2244;50.200;8.220;2023-06-22T06:45:14;22.23;;;14.00;;
4462;SDS011;2244;50.200;8.220;2023-06-22T06:47:41;19.37;;;11.67;;
4462;SDS011;2244;50.200;8.220;2023-06-22T06:50:09;19.93;;;11.70;;
4462;SDS011;2244;50.200;8.220;2023-06-22T06:52:37;21.80;;;11.57;;
4462;SDS011;2244;50.200;8.220;2023-06-22T06:55:05;23.40;;;13.27;;
4462;SDS011;2244;50.200;8.220;2023-06-22T06:57:37;19.17;;;11.00;;
4462;SDS011;2244;50.200;8.220;2023-06-22T07:00:05;20.00;;;11.30;;
4462;SDS011;2244;50.200;8.220;2023-06-22T07:02:35;19.03;;;11.30;;
4462;SDS011;2244;50.200;8.220;2023-06-22T07:05:02;16.97;;;11.30;;
4462;SDS011;2244;50.200;8.220;2023-06-22T07:07:31;19.70;;;11.77;;
4462;SDS011;2244;50.200;8.220;2023-06-22T07:10:00;20.50;;;11.50;;
4462;SDS011;2244;50.200;8.220;2023-06-22T07:12:30;19.40;;;10.43;;
4462;SDS011;2244;50.200;8.220;2023-06-22T07:15:01;18.50;;;11.90;;
4462;SDS011;2244;50.200;8.220;2023-06-22T07:17:29;16.20;;;10.23;;
4462;SDS011;2244;50.200;8.220;2023-06-22T07:19:56;19.80;;;10.00;;
4462;SDS011;2244;50.200;8.220;2023-06-22T07:22:23;23.10;;;11.33;;
4462;SDS011;2244;50.200;8.220;2023-06-22T07:24:51;20.67;;;11.37;;
4462;SDS011;2244;50.200;8.220;2023-06-22T07:27:19;20.60;;;10.43;;
4462;SDS011;2244;50.200;8.220;2023-06-22T07:29:47;21.20;;;11.73;;
4462;SDS011;2244;50.200;8.220;2023-06-22T07:32:15;17.37;;;11.17;;
4462;SDS011;2244;50.200;8.220;2023-06-22T07:34:43;20.33;;;11.03;;
4462;SDS011;2244;50.200;8.220;2023-06-22T07:37:10;18.10;;;10.77;;
4462;SDS011;2244;50.200;8.220;2023-06-22T07:39:38;20.47;;;10.70;;
4462;SDS011;2244;50.200;8.220;2023-06-22T07:42:05;19.60;;;11.57;;
4462;SDS011;2244;50.200;8.220;2023-06-22T07:44:33;20.93;;;12.07;;
4462;SDS011;2244;50.200;8.220;2023-06-22T07:47:00;17.43;;;10.00;;
4462;SDS011;2244;50.200;8.220;2023-06-22T07:49:28;19.07;;;11.30;;
4462;SDS011;2244;50.200;8.220;2023-06-22T07:51:56;18.37;;;11.13;;
4462;SDS011;2244;50.200;8.220;2023-06-22T07:54:23;19.20;;;12.17;;
4462;SDS011;2244;50.200;8.220;2023-06-22T07:56:51;18.00;;;11.50;;
4462;SDS011;2244;50.200;8.220;2023-06-22T07:59:20;19.33;;;12.13;;
4462;SDS011;2244;50.200;8.220;2023-06-22T08:01:47;20.27;;;11.97;;
4462;SDS011;2244;50.200;8.220;2023-06-22T08:04:15;16.73;;;11.40;;
4462;SDS011;2244;50.200;8.220;2023-06-22T08:06:43;17.87;;;11.90;;
4462;SDS011;2244;50.200;8.220;2023-06-22T08:09:11;19.80;;;12.10;;
4462;SDS011;2244;50.200;8.220;2023-06-22T08:11:38;19.60;;;12.00;;
4462;SDS011;2244;50.200;8.220;2023-06-22T08:14:06;21.83;;;11.30;;
4462;SDS011;2244;50.200;8.220;2023-06-22T08:16:33;19.20;;;11.53;;
4462;SDS011;2244;50.200;8.220;2023-06-22T08:19:01;21.03;;;12.10;;
4462;SDS011;2244;50.200;8.220;2023-06-22T08:21:28;18.60;;;12.03;;
4462;SDS011;2244;50.200;8.220;2023-06-22T08:23:56;22.73;;;11.50;;
4462;SDS011;2244;50.200;8.220;2023-06-22T08:26:23;20.93;;;11.40;;
4462;SDS011;2244;50.200;8.220;2023-06-22T08:28:52;16.77;;;11.30;;
4462;SDS011;2244;50.200;8.220;2023-06-22T08:31:19;19.20;;;12.07;;
4462;SDS011;2244;50.200;8.220;2023-06-22T08:33:47;18.27;;;11.63;;
4462;SDS011;2244;50.200;8.220;2023-06-22T08:36:16;23.80;;;12.00;;
4462;SDS011;2244;50.200;8.220;2023-06-22T08:38:43;17.87;;;11.00;;
4462;SDS011;2244;50.200;8.220;2023-06-22T08:41:11;16.23;;;10.27;;
4462;SDS011;2244;50.200;8.220;2023-06-22T08:43:38;21.30;;;10.70;;
4462;SDS011;2244;50.200;8.220;2023-06-22T08:46:06;18.83;;;10.43;;
4462;SDS011;2244;50.200;8.220;2023-06-22T08:48:33;18.53;;;9.30;;
4462;SDS011;2244;50.200;8.220;2023-06-22T08:51:01;17.77;;;11.40;;
4462;SDS011;2244;50.200;8.220;2023-06-22T08:53:29;17.20;;;9.50;;
4462;SDS011;2244;50.200;8.220;2023-06-22T08:55:56;16.10;;;9.70;;
4462;SDS011;2244;50.200;8.220;2023-06-22T08:58:24;16.80;;;9.30;;
4462;SDS011;2244;50.200;8.220;2023-06-22T09:00:51;16.80;;;9.57;;
4462;SDS011;2244;50.200;8.220;2023-06-22T09:03:19;17.13;;;10.10;;
4462;SDS011;2244;50.200;8.220;2023-06-22T09:05:47;18.40;;;10.23;;
4462;SDS011;2244;50.200;8.220;2023-06-22T09:08:14;18.80;;;10.63;;
4462;SDS011;2244;50.200;8.220;2023-06-22T09:10:42;15.70;;;9.30;;
4462;SDS011;2244;50.200;8.220;2023-06-22T09:13:09;26.13;;;10.00;;
4462;SDS011;2244;50.200;8.220;2023-06-22T09:15:37;16.53;;;9.57;;
4462;SDS011;2244;50.200;8.220;2023-06-22T09:18:04;15.57;;;9.53;;
4462;SDS011;2244;50.200;8.220;2023-06-22T09:20:31;17.37;;;10.80;;
4462;SDS011;2244;50.200;8.220;2023-06-22T09:22:59;18.30;;;9.30;;
4462;SDS011;2244;50.200;8.220;2023-06-22T09:25:26;18.10;;;9.03;;
4462;SDS011;2244;50.200;8.220;2023-06-22T09:27:54;15.90;;;8.47;;
4462;SDS011;2244;50.200;8.220;2023-06-22T09:30:22;16.10;;;8.73;;
4462;SDS011;2244;50.200;8.220;2023-06-22T09:32:50;17.50;;;10.60;;
4462;SDS011;2244;50.200;8.220;2023-06-22T09:35:18;15.47;;;9.57;;
4462;SDS011;2244;50.200;8.220;2023-06-22T09:37:46;15.57;;;9.20;;
4462;SDS011;2244;50.200;8.220;2023-06-22T09:40:13;16.10;;;10.50;;
4462;SDS011;2244;50.200;8.220;2023-06-22T09:42:43;15.07;;;9.27;;
4462;SDS011;2244;50.200;8.220;2023-06-22T09:45:10;15.50;;;8.90;;
4462;SDS011;2244;50.200;8.220;2023-06-22T09:47:37;17.03;;;9.70;;
4462;SDS011;2244;50.200;8.220;2023-06-22T09:50:05;19.27;;;10.13;;
4462;SDS011;2244;50.200;8.220;2023-06-22T09:52:32;16.97;;;9.20;;
4462;SDS011;2244;50.200;8.220;2023-06-22T09:55:02;17.60;;;9.40;;
4462;SDS011;2244;50.200;8.220;2023-06-22T09:57:30;15.27;;;8.70;;
4462;SDS011;2244;50.200;8.220;2023-06-22T09:59:58;15.23;;;9.27;;
4462;SDS011;2244;50.200;8.220;2023-06-22T10:02:25;17.43;;;9.93;;
4462;SDS011;2244;50.200;8.220;2023-06-22T10:04:53;15.97;;;9.20;;
4462;SDS011;2244;50.200;8.220;2023-06-22T10:07:21;16.60;;;9.10;;
4462;SDS011;2244;50.200;8.220;2023-06-22T10:09:48;17.77;;;9.87;;
4462;SDS011;2244;50.200;8.220;2023-06-22T10:12:16;20.80;;;8.63;;
4462;SDS011;2244;50.200;8.220;2023-06-22T10:14:43;20.87;;;9.93;;
4462;SDS011;2244;50.200;8.220;2023-06-22T10:17:11;14.37;;;9.27;;
4462;SDS011;2244;50.200;8.220;2023-06-22T10:19:38;16.53;;;10.03;;
4462;SDS011;2244;50.200;8.220;2023-06-22T10:22:08;15.90;;;8.90;;
4462;SDS011;2244;50.200;8.220;2023-06-22T10:24:35;13.90;;;8.73;;
4462;SDS011;2244;50.200;8.220;2023-06-22T10:27:04;20.93;;;10.20;;
4462;SDS011;2244;50.200;8.220;2023-06-22T10:29:32;15.70;;;10.33;;
4462;SDS011;2244;50.200;8.220;2023-06-22T10:31:59;25.93;;;11.27;;
4462;SDS011;2244;50.200;8.220;2023-06-22T10:34:26;24.70;;;22.20;;
4462;SDS011;2244;50.200;8.220;2023-06-22T10:36:54;18.23;;;10.57;;
4462;SDS011;2244;50.200;8.220;2023-06-22T10:39:21;15.53;;;10.50;;
4462;SDS011;2244;50.200;8.220;2023-06-22T10:41:49;16.00;;;9.93;;
4462;SDS011;2244;50.200;8.220;2023-06-22T10:44:16;19.23;;;13.37;;
4462;SDS011;2244;50.200;8.220;2023-06-22T10:46:44;16.20;;;10.10;;
4462;SDS011;2244;50.200;8.220;2023-06-22T10:49:11;15.33;;;11.17;;
4462;SDS011;2244;50.200;8.220;2023-06-22T10:51:39;17.70;;;10.70;;
4462;SDS011;2244;50.200;8.220;2023-06-22T10:54:06;16.23;;;10.33;;
4462;SDS011;2244;50.200;8.220;2023-06-22T10:56:34;17.20;;;10.10;;
4462;SDS011;2244;50.200;8.220;2023-06-22T10:59:01;19.03;;;11.17;;
4462;SDS011;2244;50.200;8.220;2023-06-22T11:01:28;21.50;;;11.00;;
4462;SDS011;2244;50.200;8.220;2023-06-22T11:03:59;17.90;;;11.17;;
4462;SDS011;2244;50.200;8.220;2023-06-22T11:06:26;16.53;;;10.30;;
4462;SDS011;2244;50.200;8.220;2023-06-22T11:08:54;18.33;;;10.97;;
4462;SDS011;2244;50.200;8.220;2023-06-22T11:11:23;20.50;;;10.73;;
4462;SDS011;2244;50.200;8.220;2023-06-22T11:13:50;16.70;;;9.97;;
4462;SDS011;2244;50.200;8.220;2023-06-22T11:16:18;18.10;;;10.27;;
4462;SDS011;2244;50.200;8.220;2023-06-22T11:18:45;16.83;;;12.77;;
4462;SDS011;2244;50.200;8.220;2023-06-22T11:21:13;17.90;;;9.60;;
4462;SDS011;2244;50.200;8.220;2023-06-22T11:23:41;15.93;;;9.47;;
4462;SDS011;2244;50.200;8.220;2023-06-22T11:26:09;17.40;;;10.00;;
4462;SDS011;2244;50.200;8.220;2023-06-22T11:28:37;20.67;;;12.20;;
4462;SDS011;2244;50.200;8.220;2023-06-22T11:31:04;14.60;;;9.00;;
4462;SDS011;2244;50.200;8.220;2023-06-22T11:33:35;15.80;;;10.20;;
4462;SDS011;2244;50.200;8.220;2023-06-22T11:36:03;17.83;;;10.40;;
4462;SDS011;2244;50.200;8.220;2023-06-22T11:38:30;17.33;;;9.80;;
4462;SDS011;2244;50.200;8.220;2023-06-22T11:40:58;17.10;;;9.47;;
4462;SDS011;2244;50.200;8.220;2023-06-22T11:43:26;19.90;;;9.73;;
4462;SDS011;2244;50.200;8.220;2023-06-22T11:45:53;18.17;;;9.50;;
4462;SDS011;2244;50.200;8.220;2023-06-22T11:48:22;16.73;;;9.50;;
4462;SDS011;2244;50.200;8.220;2023-06-22T11:50:50;18.17;;;8.90;;
4462;SDS011;2244;50.200;8.220;2023-06-22T11:53:17;15.57;;;9.23;;
4462;SDS011;2244;50.200;8.220;2023-06-22T11:55:44;15.63;;;9.23;;
4462;SDS011;2244;50.200;8.220;2023-06-22T11:58:12;16.73;;;9.00;;
4462;SDS011;2244;50.200;8.220;2023-06-22T12:00:39;16.47;;;9.43;;
4462;SDS011;2244;50.200;8.220;2023-06-22T12:03:09;17.27;;;9.23;;
4462;SDS011;2244;50.200;8.220;2023-06-22T12:05:38;14.90;;;8.40;;
4462;SDS011;2244;50.200;8.220;2023-06-22T12:08:06;16.20;;;8.20;;
4462;SDS011;2244;50.200;8.220;2023-06-22T12:10:33;16.10;;;8.93;;
4462;SDS011;2244;50.200;8.220;2023-06-22T12:13:00;16.20;;;9.00;;
4462;SDS011;2244;50.200;8.220;2023-06-22T12:15:28;16.17;;;9.10;;
4462;SDS011;2244;50.200;8.220;2023-06-22T12:17:55;18.63;;;10.27;;
4462;SDS011;2244;50.200;8.220;2023-06-22T12:20:23;16.97;;;7.97;;
4462;SDS011;2244;50.200;8.220;2023-06-22T12:22:52;20.73;;;8.70;;
4462;SDS011;2244;50.200;8.220;2023-06-22T12:25:21;16.97;;;8.93;;
4462;SDS011;2244;50.200;8.220;2023-06-22T12:27:49;17.20;;;8.53;;
4462;SDS011;2244;50.200;8.220;2023-06-22T12:30:16;17.47;;;8.60;;
4462;SDS011;2244;50.200;8.220;2023-06-22T12:32:43;18.73;;;8.83;;
4462;SDS011;2244;50.200;8.220;2023-06-22T12:35:11;16.90;;;8.60;;
4462;SDS011;2244;50.200;8.220;2023-06-22T12:37:43;22.13;;;8.57;;
4462;SDS011;2244;50.200;8.220;2023-06-22T12:40:11;21.93;;;8.43;;
4462;SDS011;2244;50.200;8.220;2023-06-22T12:42:38;15.90;;;8.40;;
4462;SDS011;2244;50.200;8.220;2023-06-22T12:45:06;15.40;;;7.87;;
4462;SDS011;2244;50.200;8.220;2023-06-22T12:47:33;18.50;;;8.40;;
4462;SDS011;2244;50.200;8.220;2023-06-22T12:50:01;18.00;;;8.13;;
4462;SDS011;2244;50.200;8.220;2023-06-22T12:52:35;18.97;;;8.50;;
4462;SDS011;2244;50.200;8.220;2023-06-22T12:55:01;23.97;;;8.00;;
4462;SDS011;2244;50.200;8.220;2023-06-22T12:57:29;18.60;;;7.67;;
4462;SDS011;2244;50.200;8.220;2023-06-22T12:59:56;16.50;;;8.53;;
4462;SDS011;2244;50.200;8.220;2023-06-22T13:02:25;22.83;;;7.93;;
4462;SDS011;2244;50.200;8.220;2023-06-22T13:04:54;15.73;;;7.30;;
4462;SDS011;2244;50.200;8.220;2023-06-22T13:07:22;17.97;;;8.43;;
4462;SDS011;2244;50.200;8.220;2023-06-22T13:09:50;19.57;;;7.80;;
4462;SDS011;2244;50.200;8.220;2023-06-22T13:12:23;17.97;;;8.30;;
4462;SDS011;2244;50.200;8.220;2023-06-22T13:14:48;18.60;;;8.10;;
4462;SDS011;2244;50.200;8.220;2023-06-22T13:17:16;17.53;;;7.97;;
4462;SDS011;2244;50.200;8.220;2023-06-22T13:19:43;18.80;;;8.07;;
4462;SDS011;2244;50.200;8.220;2023-06-22T13:22:30;20.40;;;7.77;;
4462;SDS011;2244;50.200;8.220;2023-06-22T13:24:57;19.60;;;7.50;;
4462;SDS011;2244;50.200;8.220;2023-06-22T13:27:25;17.87;;;8.47;;
4462;SDS011;2244;50.200;8.220;2023-06-22T13:29:53;18.50;;;7.80;;
4462;SDS011;2244;50.200;8.220;2023-06-22T13:32:20;21.87;;;7.70;;
4462;SDS011;2244;50.200;8.220;2023-06-22T13:34:48;20.73;;;7.80;;
4462;SDS011;2244;50.200;8.220;2023-06-22T13:37:15;20.67;;;8.13;;
4462;SDS011;2244;50.200;8.220;2023-06-22T13:39:43;21.33;;;8.17;;
4462;SDS011;2244;50.200;8.220;2023-06-22T13:42:10;16.97;;;7.70;;
4462;SDS011;2244;50.200;8.220;2023-06-22T13:44:38;20.67;;;7.70;;
4462;SDS011;2244;50.200;8.220;2023-06-22T13:47:05;19.13;;;7.93;;
4462;SDS011;2244;50.200;8.220;2023-06-22T13:49:33;18.63;;;7.90;;
4462;SDS011;2244;50.200;8.220;2023-06-22T13:52:01;19.93;;;8.60;;
4462;SDS011;2244;50.200;8.220;2023-06-22T13:54:29;16.50;;;7.77;;
4462;SDS011;2244;50.200;8.220;2023-06-22T13:56:58;25.27;;;7.90;;
4462;SDS011;2244;50.200;8.220;2023-06-22T13:59:26;20.03;;;8.57;;
4462;SDS011;2244;50.200;8.220;2023-06-22T14:01:54;18.50;;;8.83;;
4462;SDS011;2244;50.200;8.220;2023-06-22T14:04:24;18.67;;;8.70;;
4462;SDS011;2244;50.200;8.220;2023-06-22T14:06:52;19.83;;;9.00;;
4462;SDS011;2244;50.200;8.220;2023-06-22T14:09:21;21.00;;;9.60;;
4462;SDS011;2244;50.200;8.220;2023-06-22T14:11:49;16.97;;;9.53;;
4462;SDS011;2244;50.200;8.220;2023-06-22T14:14:16;18.73;;;9.77;;
4462;SDS011;2244;50.200;8.220;2023-06-22T14:16:44;17.83;;;8.83;;
4462;SDS011;2244;50.200;8.220;2023-06-22T14:19:11;20.53;;;9.43;;
4462;SDS011;2244;50.200;8.220;2023-06-22T14:21:38;19.53;;;9.77;;
4462;SDS011;2244;50.200;8.220;2023-06-22T14:24:06;18.37;;;9.70;;
4462;SDS011;2244;50.200;8.220;2023-06-22T14:26:33;18.40;;;9.40;;
4462;SDS011;2244;50.200;8.220;2023-06-22T14:29:01;20.17;;;9.40;;
4462;SDS011;2244;50.200;8.220;2023-06-22T14:31:29;18.93;;;9.87;;
4462;SDS011;2244;50.200;8.220;2023-06-22T14:33:56;17.67;;;9.73;;
4462;SDS011;2244;50.200;8.220;2023-06-22T14:36:23;19.37;;;9.60;;
4462;SDS011;2244;50.200;8.220;2023-06-22T14:38:51;18.30;;;9.23;;
4462;SDS011;2244;50.200;8.220;2023-06-22T14:41:19;20.50;;;8.97;;
4462;SDS011;2244;50.200;8.220;2023-06-22T14:43:47;22.07;;;8.10;;
4462;SDS011;2244;50.200;8.220;2023-06-22T14:46:15;15.63;;;6.80;;
4462;SDS011;2244;50.200;8.220;2023-06-22T14:48:43;15.50;;;7.03;;
4462;SDS011;2244;50.200;8.220;2023-06-22T14:51:11;19.40;;;7.23;;
4462;SDS011;2244;50.200;8.220;2023-06-22T14:53:44;19.83;;;6.57;;
4462;SDS011;2244;50.200;8.220;2023-06-22T14:56:12;17.77;;;7.53;;
4462;SDS011;2244;50.200;8.220;2023-06-22T14:58:41;21.00;;;6.43;;
4462;SDS011;2244;50.200;8.220;2023-06-22T15:01:10;18.10;;;7.53;;